sensor_id;sensor_type;location;lat;lon;timestamp;pressure;altitude;pressure_sealevel;temperature;humidity
60019;BME280;45870;42.528;26.740;2023-02-12T00:00:41;100710.06;;;4.09;32.10
60019;BME280;45870;42.528;26.740;2023-02-12T00:03:07;100704.38;;;4.20;32.15
60019;BME280;45870;42.528;26.740;2023-02-12T00:05:32;100670.34;;;3.81;31.90
60019;BME280;45870;42.528;26.740;2023-02-12T00:07:58;100711.56;;;4.03;32.27
60019;BME280;45870;42.528;26.740;2023-02-12T00:10:25;100716.22;;;4.09;31.70
60019;BME280;45870;42.528;26.740;2023-02-12T00:12:52;100715.72;;;3.73;32.16
60019;BME280;45870;42.528;26.740;2023-02-12T00:15:18;100711.84;;;3.60;32.76
60019;BME280;45870;42.528;26.740;2023-02-12T00:17:44;100714.97;;;3.39;33.01
60019;BME280;45870;42.528;26.740;2023-02-12T00:20:10;100713.31;;;3.38;33.09
60019;BME280;45870;42.528;26.740;2023-02-12T00:22:36;100711.66;;;3.45;33.17
60019;BME280;45870;42.528;26.740;2023-02-12T00:25:03;100706.09;;;3.22;32.81
60019;BME280;45870;42.528;26.740;2023-02-12T00:27:32;100704.19;;;3.65;32.35
60019;BME280;45870;42.528;26.740;2023-02-12T00:29:58;100699.91;;;3.14;32.51
60019;BME280;45870;42.528;26.740;2023-02-12T00:32:24;100701.44;;;2.82;33.22
60019;BME280;45870;42.528;26.740;2023-02-12T00:34:49;100639.19;;;2.58;33.39
60019;BME280;45870;42.528;26.740;2023-02-12T00:37:15;100701.53;;;3.81;32.31
60019;BME280;45870;42.528;26.740;2023-02-12T00:39:41;100695.84;;;3.60;31.49
60019;BME280;45870;42.528;26.740;2023-02-12T00:42:08;100700.72;;;3.96;31.69
60019;BME280;45870;42.528;26.740;2023-02-12T00:44:34;100655.13;;;4.14;30.49
60019;BME280;45870;42.528;26.740;2023-02-12T00:47:00;100700.53;;;4.38;31.47
60019;BME280;45870;42.528;26.740;2023-02-12T00:49:30;100699.03;;;4.36;31.35
60019;BME280;45870;42.528;26.740;2023-02-12T00:52:00;100701.22;;;4.32;31.13
60019;BME280;45870;42.528;26.740;2023-02-12T00:54:27;100557.53;;;3.71;30.68
60019;BME280;45870;42.528;26.740;2023-02-12T00:56:53;100689.13;;;4.61;30.25
60019;BME280;45870;42.528;26.740;2023-02-12T00:59:22;100637.72;;;4.26;30.52
60019;BME280;45870;42.528;26.740;2023-02-12T01:01:48;100636.44;;;4.14;31.00
60019;BME280;45870;42.528;26.740;2023-02-12T01:04:14;100686.38;;;4.77;31.23
60019;BME280;45870;42.528;26.740;2023-02-12T01:06:39;100652.88;;;4.50;31.42
60019;BME280;45870;42.528;26.740;2023-02-12T01:09:05;100601.25;;;3.78;31.99
60019;BME280;45870;42.528;26.740;2023-02-12T01:11:31;100686.72;;;4.82;31.42
60019;BME280;45870;42.528;26.740;2023-02-12T01:13:56;100678.72;;;5.13;30.37
60019;BME280;45870;42.528;26.740;2023-02-12T01:16:23;100552.53;;;4.70;29.74
60019;BME280;45870;42.528;26.740;2023-02-12T01:18:50;100603.38;;;5.24;29.74
60019;BME280;45870;42.528;26.740;2023-02-12T01:21:22;100675.28;;;5.80;29.37
60019;BME280;45870;42.528;26.740;2023-02-12T01:23:48;100667.09;;;5.74;29.41
60019;BME280;45870;42.528;26.740;2023-02-12T01:26:15;100625.28;;;5.73;28.97
60019;BME280;45870;42.528;26.740;2023-02-12T01:28:43;100578.06;;;5.72;29.06
60019;BME280;45870;42.528;26.740;2023-02-12T01:31:16;100650.75;;;6.29;29.28
60019;BME280;45870;42.528;26.740;2023-02-12T01:33:46;100606.34;;;5.74;29.79
60019;BME280;45870;42.528;26.740;2023-02-12T01:36:13;100669.25;;;5.78;30.94
60019;BME280;45870;42.528;26.740;2023-02-12T01:38:38;100672.91;;;5.63;31.49
60019;BME280;45870;42.528;26.740;2023-02-12T01:41:13;100679.81;;;5.80;32.51
60019;BME280;45870;42.528;26.740;2023-02-12T01:43:40;100626.06;;;5.59;31.17
60019;BME280;45870;42.528;26.740;2023-02-12T01:46:06;100614.91;;;5.92;30.31
60019;BME280;45870;42.528;26.740;2023-02-12T01:48:39;100670.56;;;5.82;31.10
60019;BME280;45870;42.528;26.740;2023-02-12T01:51:09;100671.53;;;5.89;32.42
60019;BME280;45870;42.528;26.740;2023-02-12T01:53:40;100624.84;;;5.61;31.71
60019;BME280;45870;42.528;26.740;2023-02-12T01:56:08;100669.69;;;5.90;31.23
60019;BME280;45870;42.528;26.740;2023-02-12T01:58:37;100668.50;;;5.70;31.91
60019;BME280;45870;42.528;26.740;2023-02-12T02:01:06;100675.31;;;4.25;35.59
60019;BME280;45870;42.528;26.740;2023-02-12T02:03:34;100672.47;;;5.51;32.78
60019;BME280;45870;42.528;26.740;2023-02-12T02:06:11;100664.91;;;5.77;30.70
60019;BME280;45870;42.528;26.740;2023-02-12T02:08:39;100668.59;;;5.76;31.19
60019;BME280;45870;42.528;26.740;2023-02-12T02:11:06;100667.41;;;5.79;31.16
60019;BME280;45870;42.528;26.740;2023-02-12T02:13:53;100571.88;;;4.80;31.71
60019;BME280;45870;42.528;26.740;2023-02-12T02:16:46;100533.84;;;4.93;31.08
60019;BME280;45870;42.528;26.740;2023-02-12T02:19:34;100661.63;;;6.13;30.42
60019;BME280;45870;42.528;26.740;2023-02-12T02:22:19;100653.66;;;6.05;30.75
60019;BME280;45870;42.528;26.740;2023-02-12T02:27:39;100643.72;;;5.45;32.09
60019;BME280;45870;42.528;26.740;2023-02-12T02:30:20;100638.75;;;5.11;32.73
60019;BME280;45870;42.528;26.740;2023-02-12T02:36:00;100649.84;;;5.53;31.62
60019;BME280;45870;42.528;26.740;2023-02-12T02:38:41;100649.75;;;5.70;31.31
60019;BME280;45870;42.528;26.740;2023-02-12T02:43:56;100617.34;;;5.79;31.06
60019;BME280;45870;42.528;26.740;2023-02-12T02:46:38;100644.50;;;5.76;30.76
60019;BME280;45870;42.528;26.740;2023-02-12T02:49:10;100608.53;;;5.25;30.88
60019;BME280;45870;42.528;26.740;2023-02-12T02:51:41;100638.47;;;4.98;33.03
60019;BME280;45870;42.528;26.740;2023-02-12T02:54:18;100618.56;;;5.00;32.80
60019;BME280;45870;42.528;26.740;2023-02-12T02:56:47;100409.97;;;4.47;31.82
60019;BME280;45870;42.528;26.740;2023-02-12T02:59:21;100642.81;;;5.75;30.97
60019;BME280;45870;42.528;26.740;2023-02-12T03:02:03;100642.47;;;5.78;30.98
60019;BME280;45870;42.528;26.740;2023-02-12T03:04:48;100639.13;;;5.99;30.47
60019;BME280;45870;42.528;26.740;2023-02-12T03:07:26;100547.34;;;5.45;31.23
60019;BME280;45870;42.528;26.740;2023-02-12T03:09:58;100627.69;;;5.82;31.12
60019;BME280;45870;42.528;26.740;2023-02-12T03:12:31;100641.56;;;5.63;31.68
60019;BME280;45870;42.528;26.740;2023-02-12T03:15:10;100618.19;;;5.80;31.90
60019;BME280;45870;42.528;26.740;2023-02-12T03:17:47;100641.91;;;6.06;31.50
60019;BME280;45870;42.528;26.740;2023-02-12T03:23:04;100552.41;;;4.94;32.41
60019;BME280;45870;42.528;26.740;2023-02-12T03:25:49;100586.91;;;5.58;32.45
60019;BME280;45870;42.528;26.740;2023-02-12T03:28:22;100630.94;;;6.00;31.81
60019;BME280;45870;42.528;26.740;2023-02-12T03:34:06;100599.66;;;5.93;31.54
60019;BME280;45870;42.528;26.740;2023-02-12T03:36:54;100626.09;;;4.66;33.73
60019;BME280;45870;42.528;26.740;2023-02-12T03:42:18;100628.31;;;5.70;32.46
60019;BME280;45870;42.528;26.740;2023-02-12T03:45:17;100585.53;;;5.16;32.54
60019;BME280;45870;42.528;26.740;2023-02-12T03:50:32;100579.16;;;5.40;32.85
60019;BME280;45870;42.528;26.740;2023-02-12T03:53:01;100568.34;;;5.71;31.79
60019;BME280;45870;42.528;26.740;2023-02-12T03:55:29;100557.81;;;5.54;32.10
60019;BME280;45870;42.528;26.740;2023-02-12T03:57:59;100540.03;;;5.16;32.46
60019;BME280;45870;42.528;26.740;2023-02-12T04:00:26;100598.91;;;5.39;33.46
60019;BME280;45870;42.528;26.740;2023-02-12T04:02:53;100586.56;;;4.84;34.32
60019;BME280;45870;42.528;26.740;2023-02-12T04:05:22;100494.63;;;4.85;33.07
60019;BME280;45870;42.528;26.740;2023-02-12T04:07:49;100569.03;;;5.50;32.96
60019;BME280;45870;42.528;26.740;2023-02-12T04:10:16;100605.31;;;5.38;34.23
60019;BME280;45870;42.528;26.740;2023-02-12T04:18:23;100612.59;;;5.44;33.39
60019;BME280;45870;42.528;26.740;2023-02-12T04:29:48;100532.34;;;5.36;32.98
60019;BME280;45870;42.528;26.740;2023-02-12T04:40:03;100638.91;;;3.35;37.06
60019;BME280;45870;42.528;26.740;2023-02-12T04:42:44;100654.63;;;2.46;39.68
60019;BME280;45870;42.528;26.740;2023-02-12T04:45:15;100654.16;;;1.99;42.00
60019;BME280;45870;42.528;26.740;2023-02-12T04:47:41;100658.81;;;2.90;40.18
60019;BME280;45870;42.528;26.740;2023-02-12T04:50:08;100654.88;;;4.95;36.46
60019;BME280;45870;42.528;26.740;2023-02-12T04:52:33;100666.97;;;5.67;34.78
60019;BME280;45870;42.528;26.740;2023-02-12T04:54:59;100671.53;;;5.89;34.00
60019;BME280;45870;42.528;26.740;2023-02-12T04:57:25;100681.16;;;6.21;33.45
60019;BME280;45870;42.528;26.740;2023-02-12T04:59:50;100682.84;;;5.99;33.11
60019;BME280;45870;42.528;26.740;2023-02-12T05:02:16;100681.16;;;6.21;33.17
60019;BME280;45870;42.528;26.740;2023-02-12T05:04:42;100682.34;;;6.19;33.20
60019;BME280;45870;42.528;26.740;2023-02-12T05:07:07;100682.66;;;5.56;34.97
60019;BME280;45870;42.528;26.740;2023-02-12T05:09:34;100655.81;;;5.41;34.72
60019;BME280;45870;42.528;26.740;2023-02-12T05:12:00;100696.72;;;6.03;34.82
60019;BME280;45870;42.528;26.740;2023-02-12T05:14:26;100699.84;;;6.44;32.70
60019;BME280;45870;42.528;26.740;2023-02-12T05:16:51;100478.03;;;5.13;33.26
60019;BME280;45870;42.528;26.740;2023-02-12T05:19:17;100687.66;;;6.41;33.27
60019;BME280;45870;42.528;26.740;2023-02-12T05:21:43;100697.47;;;6.64;33.15
60019;BME280;45870;42.528;26.740;2023-02-12T05:24:08;100693.88;;;6.57;32.92
60019;BME280;45870;42.528;26.740;2023-02-12T05:26:34;100478.66;;;5.37;32.67
60019;BME280;45870;42.528;26.740;2023-02-12T05:29:01;100720.81;;;7.07;32.78
60019;BME280;45870;42.528;26.740;2023-02-12T05:31:27;100699.28;;;7.22;32.10
60019;BME280;45870;42.528;26.740;2023-02-12T05:33:53;100733.47;;;7.28;32.27
60019;BME280;45870;42.528;26.740;2023-02-12T05:36:22;100662.94;;;7.04;31.41
60019;BME280;45870;42.528;26.740;2023-02-12T05:38:48;100676.63;;;7.24;31.18
60019;BME280;45870;42.528;26.740;2023-02-12T05:41:17;100733.56;;;7.70;31.18
60019;BME280;45870;42.528;26.740;2023-02-12T05:43:43;100745.53;;;8.10;29.90
60019;BME280;45870;42.528;26.740;2023-02-12T05:46:10;100756.44;;;8.23;29.65
60019;BME280;45870;42.528;26.740;2023-02-12T05:48:37;100628.22;;;7.81;29.53
60019;BME280;45870;42.528;26.740;2023-02-12T05:51:16;100735.50;;;8.40;29.83
60019;BME280;45870;42.528;26.740;2023-02-12T05:53:44;100724.22;;;8.51;29.22
60019;BME280;45870;42.528;26.740;2023-02-12T05:58:44;100762.06;;;9.12;28.55
60019;BME280;45870;42.528;26.740;2023-02-12T06:01:16;100746.72;;;9.06;28.21
60019;BME280;45870;42.528;26.740;2023-02-12T06:03:42;100776.41;;;8.84;28.72
60019;BME280;45870;42.528;26.740;2023-02-12T06:06:08;100772.66;;;8.79;28.70
60019;BME280;45870;42.528;26.740;2023-02-12T06:08:34;100767.66;;;8.76;29.13
60019;BME280;45870;42.528;26.740;2023-02-12T06:11:05;100774.38;;;8.86;29.09
60019;BME280;45870;42.528;26.740;2023-02-12T06:13:31;100732.72;;;9.23;29.07
60019;BME280;45870;42.528;26.740;2023-02-12T06:15:57;100776.28;;;9.33;28.33
60019;BME280;45870;42.528;26.740;2023-02-12T06:18:24;100781.22;;;9.23;29.10
60019;BME280;45870;42.528;26.740;2023-02-12T06:20:50;100790.28;;;9.16;28.50
60019;BME280;45870;42.528;26.740;2023-02-12T06:23:15;100783.09;;;9.29;29.54
60019;BME280;45870;42.528;26.740;2023-02-12T06:25:41;100785.59;;;9.31;28.36
60019;BME280;45870;42.528;26.740;2023-02-12T06:28:07;100780.09;;;9.45;28.96
60019;BME280;45870;42.528;26.740;2023-02-12T06:30:33;100776.84;;;9.22;29.35
60019;BME280;45870;42.528;26.740;2023-02-12T06:32:59;100570.41;;;8.47;28.67
60019;BME280;45870;42.528;26.740;2023-02-12T06:35:25;100773.75;;;9.73;28.26
60019;BME280;45870;42.528;26.740;2023-02-12T06:37:51;100749.75;;;9.78;28.40
60019;BME280;45870;42.528;26.740;2023-02-12T06:40:17;100771.44;;;10.43;27.58
60019;BME280;45870;42.528;26.740;2023-02-12T06:42:43;100776.22;;;10.41;27.39
60019;BME280;45870;42.528;26.740;2023-02-12T06:45:09;100785.97;;;10.42;26.88
60019;BME280;45870;42.528;26.740;2023-02-12T06:47:34;100787.88;;;10.68;26.54
60019;BME280;45870;42.528;26.740;2023-02-12T06:50:00;100787.03;;;10.55;26.57
60019;BME280;45870;42.528;26.740;2023-02-12T06:52:26;100755.44;;;10.16;26.56
60019;BME280;45870;42.528;26.740;2023-02-12T06:54:52;100789.88;;;9.19;28.03
60019;BME280;45870;42.528;26.740;2023-02-12T06:57:18;100792.25;;;8.73;29.35
60019;BME280;45870;42.528;26.740;2023-02-12T06:59:43;100798.16;;;10.12;26.73
60019;BME280;45870;42.528;26.740;2023-02-12T07:02:10;100793.88;;;10.57;26.13
60019;BME280;45870;42.528;26.740;2023-02-12T07:04:37;100804.69;;;10.70;26.43
60019;BME280;45870;42.528;26.740;2023-02-12T07:07:04;100788.25;;;10.85;25.93
60019;BME280;45870;42.528;26.740;2023-02-12T07:09:30;100800.25;;;11.28;25.84
60019;BME280;45870;42.528;26.740;2023-02-12T07:11:59;100803.41;;;10.99;26.07
60019;BME280;45870;42.528;26.740;2023-02-12T07:14:24;100755.78;;;11.24;25.75
60019;BME280;45870;42.528;26.740;2023-02-12T07:16:53;100809.63;;;11.90;24.94
60019;BME280;45870;42.528;26.740;2023-02-12T07:19:20;100801.69;;;11.95;25.42
60019;BME280;45870;42.528;26.740;2023-02-12T07:21:46;100757.94;;;12.05;25.56
60019;BME280;45870;42.528;26.740;2023-02-12T07:24:13;100789.31;;;11.74;25.09
60019;BME280;45870;42.528;26.740;2023-02-12T07:26:40;100791.25;;;12.61;25.48
60019;BME280;45870;42.528;26.740;2023-02-12T07:29:06;100797.63;;;10.69;26.91
60019;BME280;45870;42.528;26.740;2023-02-12T07:31:32;100795.75;;;10.57;28.27
60019;BME280;45870;42.528;26.740;2023-02-12T07:33:59;100683.19;;;10.64;26.19
60019;BME280;45870;42.528;26.740;2023-02-12T07:36:28;100786.63;;;10.51;27.79
60019;BME280;45870;42.528;26.740;2023-02-12T07:38:55;100796.59;;;10.90;26.91
60019;BME280;45870;42.528;26.740;2023-02-12T07:41:23;100790.28;;;8.60;30.46
60019;BME280;45870;42.528;26.740;2023-02-12T07:43:54;100789.94;;;10.73;27.53
60019;BME280;45870;42.528;26.740;2023-02-12T07:46:26;100726.69;;;8.52;30.96
60019;BME280;45870;42.528;26.740;2023-02-12T07:48:56;100788.56;;;9.42;29.30
60019;BME280;45870;42.528;26.740;2023-02-12T07:51:22;100762.78;;;8.37;31.50
60019;BME280;45870;42.528;26.740;2023-02-12T07:53:48;100784.56;;;8.97;30.57
60019;BME280;45870;42.528;26.740;2023-02-12T07:56:20;100606.28;;;9.09;29.31
60019;BME280;45870;42.528;26.740;2023-02-12T07:58:49;100771.31;;;9.30;30.75
60019;BME280;45870;42.528;26.740;2023-02-12T08:01:23;100772.09;;;9.24;31.15
60019;BME280;45870;42.528;26.740;2023-02-12T08:03:51;100730.13;;;8.40;31.39
60019;BME280;45870;42.528;26.740;2023-02-12T08:06:21;100787.22;;;9.66;29.92
60019;BME280;45870;42.528;26.740;2023-02-12T08:08:50;100781.59;;;10.35;29.40
60019;BME280;45870;42.528;26.740;2023-02-12T08:11:17;100791.91;;;9.10;29.82
60019;BME280;45870;42.528;26.740;2023-02-12T08:13:44;100797.44;;;11.61;27.07
60019;BME280;45870;42.528;26.740;2023-02-12T08:16:16;100800.66;;;9.53;30.52
60019;BME280;45870;42.528;26.740;2023-02-12T08:18:42;100720.19;;;9.02;30.73
60019;BME280;45870;42.528;26.740;2023-02-12T08:21:16;100789.63;;;10.09;30.18
60019;BME280;45870;42.528;26.740;2023-02-12T08:23:43;100760.66;;;10.63;28.22
60019;BME280;45870;42.528;26.740;2023-02-12T08:26:12;100792.50;;;9.46;30.50
60019;BME280;45870;42.528;26.740;2023-02-12T08:28:47;100779.09;;;10.99;28.30
60019;BME280;45870;42.528;26.740;2023-02-12T08:31:18;100804.13;;;10.01;29.78
60019;BME280;45870;42.528;26.740;2023-02-12T08:33:46;100761.59;;;12.73;25.58
60019;BME280;45870;42.528;26.740;2023-02-12T08:36:15;100809.34;;;12.36;25.60
60019;BME280;45870;42.528;26.740;2023-02-12T08:38:42;100814.44;;;10.97;27.92
60019;BME280;45870;42.528;26.740;2023-02-12T08:41:13;100800.72;;;10.99;28.24
60019;BME280;45870;42.528;26.740;2023-02-12T08:43:40;100801.16;;;10.57;28.79
60019;BME280;45870;42.528;26.740;2023-02-12T08:46:10;100773.69;;;10.99;28.23
60019;BME280;45870;42.528;26.740;2023-02-12T08:48:37;100804.47;;;11.75;27.08
60019;BME280;45870;42.528;26.740;2023-02-12T08:51:08;100776.16;;;12.72;26.32
60019;BME280;45870;42.528;26.740;2023-02-12T08:53:35;100747.63;;;13.19;25.10
60019;BME280;45870;42.528;26.740;2023-02-12T08:56:01;100738.56;;;13.25;23.90
60019;BME280;45870;42.528;26.740;2023-02-12T08:58:30;100748.34;;;14.63;23.46
60019;BME280;45870;42.528;26.740;2023-02-12T09:00:56;100806.31;;;12.26;26.43
60019;BME280;45870;42.528;26.740;2023-02-12T09:03:22;100749.97;;;12.66;25.91
60019;BME280;45870;42.528;26.740;2023-02-12T09:05:48;100736.38;;;15.74;22.53
60019;BME280;45870;42.528;26.740;2023-02-12T09:08:14;100763.06;;;11.81;26.28
60019;BME280;45870;42.528;26.740;2023-02-12T09:10:41;100726.63;;;12.15;26.86
60019;BME280;45870;42.528;26.740;2023-02-12T09:13:08;100810.56;;;11.64;27.25
60019;BME280;45870;42.528;26.740;2023-02-12T09:15:41;100812.09;;;14.01;25.43
60019;BME280;45870;42.528;26.740;2023-02-12T09:18:07;100807.88;;;13.39;25.98
60019;BME280;45870;42.528;26.740;2023-02-12T09:20:37;100801.84;;;14.74;23.49
60019;BME280;45870;42.528;26.740;2023-02-12T09:23:04;100808.47;;;15.13;22.76
60019;BME280;45870;42.528;26.740;2023-02-12T09:25:30;100814.00;;;14.30;23.65
60019;BME280;45870;42.528;26.740;2023-02-12T09:28:00;100825.28;;;13.86;23.37
60019;BME280;45870;42.528;26.740;2023-02-12T09:30:26;100831.75;;;13.67;23.81
60019;BME280;45870;42.528;26.740;2023-02-12T09:32:51;100826.09;;;14.16;23.65
60019;BME280;45870;42.528;26.740;2023-02-12T09:35:18;100816.88;;;15.35;21.77
60019;BME280;45870;42.528;26.740;2023-02-12T09:37:44;100650.31;;;11.75;24.29
60019;BME280;45870;42.528;26.740;2023-02-12T09:40:30;100824.91;;;14.12;24.57
60019;BME280;45870;42.528;26.740;2023-02-12T09:43:27;100831.25;;;14.66;23.70
60019;BME280;45870;42.528;26.740;2023-02-12T09:46:16;100830.31;;;15.88;21.38
60019;BME280;45870;42.528;26.740;2023-02-12T09:51:19;100826.41;;;16.40;20.49
60019;BME280;45870;42.528;26.740;2023-02-12T09:53:47;100716.50;;;17.02;20.33
60019;BME280;45870;42.528;26.740;2023-02-12T09:56:16;100763.75;;;17.45;19.43
60019;BME280;45870;42.528;26.740;2023-02-12T09:58:50;100833.25;;;13.63;23.72
60019;BME280;45870;42.528;26.740;2023-02-12T10:01:19;100661.72;;;15.70;20.18
60019;BME280;45870;42.528;26.740;2023-02-12T10:03:48;100803.19;;;16.99;19.89
60019;BME280;45870;42.528;26.740;2023-02-12T10:06:29;100837.19;;;19.19;17.87
60019;BME280;45870;42.528;26.740;2023-02-12T10:22:16;100846.28;;;13.36;23.47
60019;BME280;45870;42.528;26.740;2023-02-12T10:27:51;100543.06;;;11.00;24.33
60019;BME280;45870;42.528;26.740;2023-02-12T10:30:24;100834.59;;;12.61;24.38
60019;BME280;45870;42.528;26.740;2023-02-12T10:33:02;100839.31;;;12.41;24.21
60019;BME280;45870;42.528;26.740;2023-02-12T10:35:30;100847.38;;;12.79;24.31
60019;BME280;45870;42.528;26.740;2023-02-12T10:38:03;100851.97;;;12.16;25.00
60019;BME280;45870;42.528;26.740;2023-02-12T10:40:30;100848.34;;;12.28;24.69
60019;BME280;45870;42.528;26.740;2023-02-12T10:42:59;100840.66;;;12.57;24.23
60019;BME280;45870;42.528;26.740;2023-02-12T10:45:32;100782.16;;;12.56;23.28
60019;BME280;45870;42.528;26.740;2023-02-12T10:48:20;100845.28;;;12.18;24.54
60019;BME280;45870;42.528;26.740;2023-02-12T10:53:30;100642.38;;;12.55;23.48
60019;BME280;45870;42.528;26.740;2023-02-12T10:58:58;100866.09;;;13.36;24.52
60019;BME280;45870;42.528;26.740;2023-02-12T11:01:28;100862.31;;;13.19;25.20
60019;BME280;45870;42.528;26.740;2023-02-12T11:03:56;100864.63;;;13.16;24.20
60019;BME280;45870;42.528;26.740;2023-02-12T11:06:27;100834.66;;;13.04;24.99
60019;BME280;45870;42.528;26.740;2023-02-12T11:08:55;100838.75;;;10.78;26.64
60019;BME280;45870;42.528;26.740;2023-02-12T11:11:30;100850.09;;;12.79;25.37
60019;BME280;45870;42.528;26.740;2023-02-12T11:14:06;100862.59;;;12.80;25.92
60019;BME280;45870;42.528;26.740;2023-02-12T11:16:45;100817.13;;;11.17;26.63
60019;BME280;45870;42.528;26.740;2023-02-12T11:19:21;100871.19;;;12.01;27.59
60019;BME280;45870;42.528;26.740;2023-02-12T11:21:49;100878.16;;;11.58;27.25
60019;BME280;45870;42.528;26.740;2023-02-12T11:26:47;100870.78;;;11.97;26.94
60019;BME280;45870;42.528;26.740;2023-02-12T11:29:19;100865.03;;;12.25;26.73
60019;BME280;45870;42.528;26.740;2023-02-12T11:32:00;100856.19;;;11.28;27.97
60019;BME280;45870;42.528;26.740;2023-02-12T11:34:26;100849.41;;;11.83;26.74
60019;BME280;45870;42.528;26.740;2023-02-12T11:36:54;100868.47;;;12.01;27.14
60019;BME280;45870;42.528;26.740;2023-02-12T11:39:25;100871.81;;;11.96;26.67
60019;BME280;45870;42.528;26.740;2023-02-12T11:42:00;100871.38;;;12.44;26.41
60019;BME280;45870;42.528;26.740;2023-02-12T11:44:35;100828.97;;;10.57;29.04
60019;BME280;45870;42.528;26.740;2023-02-12T11:47:20;100814.75;;;11.40;28.15
60019;BME280;45870;42.528;26.740;2023-02-12T11:49:53;100874.00;;;12.19;27.37
60019;BME280;45870;42.528;26.740;2023-02-12T11:52:20;100870.97;;;12.40;26.48
60019;BME280;45870;42.528;26.740;2023-02-12T11:54:50;100868.41;;;11.43;28.72
60019;BME280;45870;42.528;26.740;2023-02-12T12:06:04;100866.97;;;12.12;29.43
60019;BME280;45870;42.528;26.740;2023-02-12T12:08:44;100862.38;;;12.50;28.22
60019;BME280;45870;42.528;26.740;2023-02-12T12:11:17;100693.38;;;11.32;29.23
60019;BME280;45870;42.528;26.740;2023-02-12T12:19:27;100824.13;;;11.38;30.80
60019;BME280;45870;42.528;26.740;2023-02-12T12:22:43;100879.28;;;11.11;32.12
60019;BME280;45870;42.528;26.740;2023-02-12T12:25:33;100891.13;;;11.03;32.46
60019;BME280;45870;42.528;26.740;2023-02-12T12:28:26;100888.41;;;11.03;32.75
60019;BME280;45870;42.528;26.740;2023-02-12T12:41:30;100900.44;;;10.81;33.63
60019;BME280;45870;42.528;26.740;2023-02-12T12:55:15;100928.69;;;10.72;34.18
60019;BME280;45870;42.528;26.740;2023-02-12T12:58:04;100893.66;;;9.42;36.09
60019;BME280;45870;42.528;26.740;2023-02-12T13:03:39;100934.94;;;10.85;33.50
60019;BME280;45870;42.528;26.740;2023-02-12T13:09:26;100945.38;;;11.28;32.65
60019;BME280;45870;42.528;26.740;2023-02-12T13:11:59;100943.06;;;11.44;32.60
60019;BME280;45870;42.528;26.740;2023-02-12T13:14:45;100954.72;;;11.25;32.65
60019;BME280;45870;42.528;26.740;2023-02-12T13:20:13;100960.97;;;11.45;32.09
60019;BME280;45870;42.528;26.740;2023-02-12T13:22:58;100964.38;;;10.61;33.60
60019;BME280;45870;42.528;26.740;2023-02-12T13:28:02;100983.81;;;10.97;33.24
60019;BME280;45870;42.528;26.740;2023-02-12T13:30:44;100934.34;;;11.03;32.55
60019;BME280;45870;42.528;26.740;2023-02-12T13:33:25;100949.53;;;11.11;32.84
60019;BME280;45870;42.528;26.740;2023-02-12T13:35:55;100970.66;;;10.81;33.89
60019;BME280;45870;42.528;26.740;2023-02-12T13:38:35;100990.69;;;11.52;32.38
60019;BME280;45870;42.528;26.740;2023-02-12T13:41:06;100990.72;;;12.42;30.94
60019;BME280;45870;42.528;26.740;2023-02-12T13:44:00;100995.97;;;12.37;31.08
60019;BME280;45870;42.528;26.740;2023-02-12T13:46:43;101000.47;;;11.53;31.90
60019;BME280;45870;42.528;26.740;2023-02-12T13:52:23;101011.91;;;11.35;32.34
60019;BME280;45870;42.528;26.740;2023-02-12T13:55:00;100971.75;;;11.13;32.45
60019;BME280;45870;42.528;26.740;2023-02-12T13:57:30;100961.34;;;11.88;31.64
60019;BME280;45870;42.528;26.740;2023-02-12T13:59:56;100955.97;;;11.36;32.42
60019;BME280;45870;42.528;26.740;2023-02-12T14:02:39;101024.81;;;11.60;32.44
60019;BME280;45870;42.528;26.740;2023-02-12T14:05:20;101036.75;;;10.85;34.87
60019;BME280;45870;42.528;26.740;2023-02-12T14:07:51;101036.97;;;10.83;34.71
60019;BME280;45870;42.528;26.740;2023-02-12T14:12:49;101019.78;;;9.53;37.83
60019;BME280;45870;42.528;26.740;2023-02-12T14:18:03;101052.03;;;10.58;36.14
60019;BME280;45870;42.528;26.740;2023-02-12T14:20:34;101061.09;;;10.98;35.67
60019;BME280;45870;42.528;26.740;2023-02-12T14:23:24;101065.75;;;10.63;35.90
60019;BME280;45870;42.528;26.740;2023-02-12T14:26:04;101077.06;;;10.86;35.05
60019;BME280;45870;42.528;26.740;2023-02-12T14:28:46;101072.00;;;9.74;36.22
60019;BME280;45870;42.528;26.740;2023-02-12T14:33:45;101080.50;;;9.98;37.05
60019;BME280;45870;42.528;26.740;2023-02-12T14:39:03;101073.66;;;11.32;34.10
60019;BME280;45870;42.528;26.740;2023-02-12T14:41:35;101080.00;;;10.44;35.92
60019;BME280;45870;42.528;26.740;2023-02-12T14:47:02;101094.25;;;10.72;35.91
60019;BME280;45870;42.528;26.740;2023-02-12T14:49:37;101106.66;;;9.13;38.61
60019;BME280;45870;42.528;26.740;2023-02-12T14:57:28;101114.75;;;9.56;37.78
60019;BME280;45870;42.528;26.740;2023-02-12T14:59:58;101115.16;;;10.23;36.95
60019;BME280;45870;42.528;26.740;2023-02-12T15:02:29;101110.66;;;9.02;39.95
60019;BME280;45870;42.528;26.740;2023-02-12T15:05:00;101131.06;;;9.47;39.20
60019;BME280;45870;42.528;26.740;2023-02-12T15:07:32;101135.59;;;9.47;39.45
60019;BME280;45870;42.528;26.740;2023-02-12T15:10:14;101131.03;;;9.26;40.31
60019;BME280;45870;42.528;26.740;2023-02-12T15:12:47;101126.63;;;10.10;38.87
60019;BME280;45870;42.528;26.740;2023-02-12T15:15:26;101106.31;;;9.86;39.07
60019;BME280;45870;42.528;26.740;2023-02-12T15:18:20;101154.22;;;10.06;39.16
60019;BME280;45870;42.528;26.740;2023-02-12T15:20:53;101166.94;;;9.69;39.37
60019;BME280;45870;42.528;26.740;2023-02-12T15:26:00;101168.91;;;9.61;39.94
60019;BME280;45870;42.528;26.740;2023-02-12T15:28:31;101180.97;;;9.08;41.40